Time;durP1;ratioP1;P1;durP2;ratioP2;P2;SDS_P1;SDS_P2;PMS_P1;PMS_P2;Temp;Humidity;BMP_temperature;BMP_pressure;BME280_temperature;BME280_humidity;BME280_pressure;Samples;Min_cycle;Max_cycle;Signal;HPM_P1;HPM_P2
2023/04/07 00:00:11;;;;;;;10.67;3.00;;;9.10;99.90;;;;;;5095002;28;20201;-86
2023/04/07 00:02:39;;;;;;;19.37;4.87;;;9.00;99.90;;;;;;5089436;28;20315;-87
2023/04/07 00:05:07;;;;;;;12.70;4.40;;;9.10;99.90;;;;;;5074647;28;20205;-87
2023/04/07 00:07:34;;;;;;;18.50;3.73;;;9.10;99.90;;;;;;5074883;28;20197;-87
2023/04/07 00:10:01;;;;;;;10.53;3.40;;;9.10;99.90;;;;;;5074281;28;20193;-87
2023/04/07 00:12:28;;;;;;;15.07;3.80;;;9.10;99.90;;;;;;5074803;28;20285;-85
2023/04/07 00:14:55;;;;;;;13.07;3.33;;;9.10;99.90;;;;;;5074809;28;20232;-86
2023/04/07 00:17:23;;;;;;;13.77;3.17;;;9.10;99.90;;;;;;5074025;28;20513;-85
2023/04/07 00:19:50;;;;;;;13.53;3.07;;;9.10;99.90;;;;;;5074085;28;20291;-86
2023/04/07 00:22:18;;;;;;;17.27;3.27;;;9.10;99.90;;;;;;5074267;28;20674;-87
2023/04/07 00:24:44;;;;;;;17.90;3.23;;;9.10;99.90;;;;;;5074434;28;20304;-86
2023/04/07 00:27:11;;;;;;;14.20;3.23;;;9.10;99.90;;;;;;5074300;28;20276;-84
2023/04/07 00:29:38;;;;;;;9.13;2.50;;;9.10;99.90;;;;;;5074134;28;20288;-84
2023/04/07 00:32:05;;;;;;;14.23;3.47;;;9.10;99.90;;;;;;5073681;28;20278;-86
2023/04/07 00:34:33;;;;;;;16.20;3.50;;;9.00;99.90;;;;;;5074179;28;20233;-86
2023/04/07 00:37:00;;;;;;;9.90;2.60;;;9.10;99.90;;;;;;5073868;28;20209;-86
2023/04/07 00:39:27;;;;;;;10.73;3.00;;;9.10;99.90;;;;;;5073534;28;20193;-86
2023/04/07 00:41:55;;;;;;;10.63;3.00;;;9.10;99.90;;;;;;5073371;28;20245;-85
2023/04/07 00:44:22;;;;;;;15.67;3.53;;;9.10;99.90;;;;;;5073863;28;20618;-86
2023/04/07 00:46:49;;;;;;;15.43;3.10;;;9.10;99.90;;;;;;5073861;28;20267;-86
2023/04/07 00:49:17;;;;;;;13.10;3.10;;;9.10;99.90;;;;;;5073523;28;20201;-85
2023/04/07 00:51:46;;;;;;;13.57;3.47;;;9.10;99.90;;;;;;5073224;28;20213;-87
2023/04/07 00:54:13;;;;;;;14.17;3.23;;;9.10;99.90;;;;;;5073428;28;20202;-85
2023/04/07 00:56:40;;;;;;;11.97;3.10;;;9.00;99.90;;;;;;5073712;28;20247;-85
2023/04/07 00:59:07;;;;;;;13.30;3.23;;;9.10;99.90;;;;;;5077463;28;20292;-84
2023/04/07 01:01:41;;;;;;;13.67;3.00;;;9.10;99.90;;;;;;5093734;28;20672;-85
2023/04/07 01:04:12;;;;;;;10.23;3.40;;;9.10;99.90;;;;;;5093265;28;20209;-86
2023/04/07 01:06:47;;;;;;;8.87;3.10;;;9.10;99.90;;;;;;5092892;28;20271;-87
2023/04/07 01:09:21;;;;;;;13.47;3.10;;;9.10;99.90;;;;;;5093803;28;20220;-86
2023/04/07 01:11:54;;;;;;;15.03;3.47;;;9.10;99.90;;;;;;5093733;28;20624;-87
2023/04/07 01:14:21;;;;;;;13.97;3.47;;;9.10;99.90;;;;;;5093228;28;20221;-85
2023/04/07 01:16:51;;;;;;;13.93;3.47;;;9.10;99.90;;;;;;5079889;28;20547;-86
2023/04/07 01:19:33;;;;;;;17.00;4.00;;;9.10;99.90;;;;;;5073323;28;20193;-86
2023/04/07 01:22:00;;;;;;;10.17;3.00;;;9.10;99.90;;;;;;5090925;28;20208;-89
2023/04/07 01:24:42;;;;;;;12.53;3.30;;;9.10;99.90;;;;;;5094478;28;20216;-88
2023/04/07 01:27:21;;;;;;;14.07;3.80;;;9.10;99.90;;;;;;5093923;28;20196;-87
2023/04/07 01:29:50;;;;;;;11.77;2.80;;;9.10;99.90;;;;;;5087273;28;20201;-86
2023/04/07 01:32:20;;;;;;;14.00;3.30;;;9.10;99.90;;;;;;5073782;28;20250;-87
2023/04/07 01:34:49;;;;;;;17.27;3.43;;;9.10;99.90;;;;;;5073885;28;20204;-85
2023/04/07 01:37:17;;;;;;;18.47;3.63;;;9.10;99.90;;;;;;5074111;28;20205;-88
2023/04/07 01:39:44;;;;;;;15.90;3.97;;;9.10;99.90;;;;;;5074012;28;20292;-87
2023/04/07 01:42:12;;;;;;;18.90;3.50;;;9.10;99.90;;;;;;5073342;28;20237;-87
2023/04/07 01:44:40;;;;;;;13.13;3.10;;;9.10;99.90;;;;;;5079014;28;20793;-88
2023/04/07 01:47:09;;;;;;;11.73;3.77;;;9.10;99.90;;;;;;5094052;28;20288;-88
2023/04/07 01:49:37;;;;;;;11.57;3.53;;;9.10;99.90;;;;;;5094058;28;20279;-86
2023/04/07 01:52:07;;;;;;;13.57;3.53;;;9.10;99.90;;;;;;5094008;28;20607;-88
2023/04/07 01:54:35;;;;;;;11.13;2.90;;;9.10;99.90;;;;;;5086879;28;20243;-85
2023/04/07 01:57:02;;;;;;;13.73;3.00;;;9.10;99.90;;;;;;5077409;28;20209;-86
2023/04/07 01:59:30;;;;;;;15.20;3.80;;;9.10;99.90;;;;;;5077515;28;20221;-86
2023/04/07 02:01:57;;;;;;;14.40;3.00;;;9.10;99.90;;;;;;5076797;28;20270;-88
2023/04/07 02:04:36;;;;;;;12.20;3.27;;;9.10;99.90;;;;;;5077243;28;20578;-88
2023/04/07 02:07:09;;;;;;;13.37;3.70;;;9.10;99.90;;;;;;5077193;28;20214;-86
2023/04/07 02:09:40;;;;;;;10.20;3.00;;;9.10;99.90;;;;;;5077089;28;20263;-86
2023/04/07 02:12:09;;;;;;;11.97;3.37;;;9.10;99.90;;;;;;5077801;28;20197;-89
2023/04/07 02:14:37;;;;;;;12.10;3.53;;;9.20;99.90;;;;;;5077287;28;20253;-89
2023/04/07 02:17:05;;;;;;;11.40;4.10;;;9.20;99.90;;;;;;5096078;28;20292;-88
2023/04/07 02:19:34;;;;;;;8.23;3.13;;;9.20;99.90;;;;;;5097468;28;20213;-89
2023/04/07 02:22:03;;;;;;;13.17;4.57;;;9.20;99.90;;;;;;5086346;28;20208;-85
2023/04/07 02:24:30;;;;;;;6.93;2.87;;;9.10;99.90;;;;;;5076877;28;20580;-86
2023/04/07 02:26:59;;;;;;;7.50;2.93;;;9.10;99.90;;;;;;5077056;28;20228;-87
2023/04/07 02:29:27;;;;;;;12.90;4.03;;;9.10;99.90;;;;;;5077078;28;20209;-87
2023/04/07 02:31:53;;;;;;;11.00;3.33;;;9.10;99.90;;;;;;5076563;28;20590;-86
2023/04/07 02:34:20;;;;;;;14.57;3.23;;;9.10;99.90;;;;;;5076771;28;20212;-86
2023/04/07 02:36:49;;;;;;;8.83;3.60;;;9.10;99.90;;;;;;5076754;28;20220;-86
2023/04/07 02:39:16;;;;;;;12.00;3.87;;;9.10;99.90;;;;;;5076079;28;20594;-86
2023/04/07 02:41:43;;;;;;;14.37;3.87;;;9.10;99.90;;;;;;5076864;28;20260;-87
2023/04/07 02:44:10;;;;;;;10.13;3.10;;;9.10;99.90;;;;;;5076640;28;20308;-87
2023/04/07 02:46:37;;;;;;;13.73;4.57;;;9.10;99.90;;;;;;5076149;28;20285;-86
2023/04/07 02:49:04;;;;;;;15.50;3.87;;;9.10;99.90;;;;;;5076557;28;20197;-87
2023/04/07 02:51:31;;;;;;;10.13;3.13;;;9.10;99.90;;;;;;5075491;28;20225;-88
2023/04/07 02:53:59;;;;;;;13.80;3.37;;;9.10;99.90;;;;;;5076138;28;20254;-84
2023/04/07 02:56:26;;;;;;;10.83;3.20;;;9.10;99.90;;;;;;5078683;28;20274;-88
2023/04/07 02:58:53;;;;;;;10.30;2.90;;;9.10;99.90;;;;;;5078011;28;20185;-85
2023/04/07 03:01:20;;;;;;;12.80;2.87;;;9.10;99.90;;;;;;5077486;28;20217;-86
2023/04/07 03:03:47;;;;;;;12.70;3.13;;;9.10;99.90;;;;;;5078241;28;20228;-89
2023/04/07 03:06:14;;;;;;;8.80;3.00;;;9.10;99.90;;;;;;5077365;28;20280;-89
2023/04/07 03:08:41;;;;;;;10.40;3.10;;;9.10;99.90;;;;;;5078073;28;20212;-88
2023/04/07 03:11:09;;;;;;;8.60;2.60;;;9.00;99.90;;;;;;5079856;28;20554;-86
2023/04/07 03:13:36;;;;;;;9.80;2.70;;;9.00;99.90;;;;;;5080260;28;20225;-85
2023/04/07 03:16:03;;;;;;;8.83;2.97;;;9.00;99.90;;;;;;5077464;28;20221;-88
2023/04/07 03:18:30;;;;;;;11.33;2.80;;;9.00;99.90;;;;;;5076694;28;20265;-89
2023/04/07 03:20:57;;;;;;;10.40;2.87;;;9.00;99.90;;;;;;5076776;28;20265;-87
2023/04/07 03:23:24;;;;;;;16.77;3.40;;;9.00;99.90;;;;;;5076582;28;20227;-90
2023/04/07 03:25:51;;;;;;;8.97;2.80;;;9.00;99.90;;;;;;5076837;28;20225;-88
2023/04/07 03:28:20;;;;;;;12.43;3.10;;;9.00;99.90;;;;;;5076360;28;20213;-89
2023/04/07 03:30:46;;;;;;;13.10;2.53;;;9.00;99.90;;;;;;5077745;28;20236;-88
2023/04/07 03:33:14;;;;;;;11.70;2.60;;;9.00;99.90;;;;;;5080769;28;20253;-88
2023/04/07 03:35:42;;;;;;;11.17;2.70;;;9.00;99.90;;;;;;5081637;28;20209;-88
2023/04/07 03:38:09;;;;;;;13.87;2.83;;;9.00;99.90;;;;;;5080167;28;20190;-89
2023/04/07 03:40:36;;;;;;;15.73;3.63;;;9.00;99.90;;;;;;5077113;28;20233;-88
2023/04/07 03:43:03;;;;;;;13.03;2.53;;;9.00;99.90;;;;;;5077836;28;20266;-88
2023/04/07 03:45:34;;;;;;;14.80;2.87;;;8.90;99.90;;;;;;5077672;28;20206;-90
2023/04/07 03:48:01;;;;;;;14.87;4.30;;;9.00;99.90;;;;;;5079952;28;20197;-87
2023/04/07 03:50:28;;;;;;;11.13;3.07;;;9.00;99.90;;;;;;5077877;28;20273;-89
2023/04/07 03:52:55;;;;;;;8.23;2.60;;;9.00;99.90;;;;;;5077461;28;20287;-88
2023/04/07 03:55:22;;;;;;;11.27;2.63;;;8.90;99.90;;;;;;5083410;28;20204;-88
2023/04/07 03:57:49;;;;;;;7.50;2.77;;;8.90;99.90;;;;;;5101913;28;20202;-84
2023/04/07 04:00:16;;;;;;;10.63;2.70;;;9.00;99.90;;;;;;5093902;28;20261;-84
2023/04/07 04:02:44;;;;;;;17.10;3.10;;;9.00;99.90;;;;;;5086007;28;20197;-84
2023/04/07 04:05:11;;;;;;;12.00;3.13;;;9.00;99.90;;;;;;5086722;28;20259;-84
2023/04/07 04:07:38;;;;;;;14.50;1.97;;;9.00;99.90;;;;;;5075502;28;20197;-84
2023/04/07 04:10:07;;;;;;;9.67;3.13;;;9.00;99.90;;;;;;5089352;28;20204;-86
2023/04/07 04:12:34;;;;;;;12.13;2.60;;;9.00;99.90;;;;;;5094720;28;20200;-83
2023/04/07 04:15:01;;;;;;;13.93;2.40;;;9.00;99.90;;;;;;5094840;28;20189;-83
2023/04/07 04:17:28;;;;;;;13.50;2.93;;;9.10;99.90;;;;;;5092334;28;20682;-86
2023/04/07 04:19:56;;;;;;;12.63;2.73;;;9.00;99.90;;;;;;5074546;28;20267;-87
2023/04/07 04:22:23;;;;;;;10.77;2.17;;;9.00;99.90;;;;;;5074167;28;20209;-86
2023/04/07 04:24:50;;;;;;;11.47;2.27;;;9.00;99.90;;;;;;5073892;28;20709;-84
2023/04/07 04:27:17;;;;;;;11.00;2.70;;;9.00;99.90;;;;;;5073625;28;20669;-85
2023/04/07 04:29:44;;;;;;;11.57;2.20;;;9.00;99.90;;;;;;5073532;28;20645;-84
2023/04/07 04:32:11;;;;;;;9.00;2.33;;;9.00;99.90;;;;;;5074126;28;20213;-83
2023/04/07 04:34:40;;;;;;;14.43;2.60;;;8.90;99.90;;;;;;5073766;28;20247;-84
2023/04/07 04:37:09;;;;;;;11.03;3.00;;;8.90;99.90;;;;;;5073247;28;20193;-84
2023/04/07 04:39:36;;;;;;;12.47;2.70;;;8.90;99.90;;;;;;5074329;28;20193;-84
2023/04/07 04:42:03;;;;;;;15.23;2.87;;;8.90;99.90;;;;;;5073768;28;20236;-85
2023/04/07 04:44:30;;;;;;;13.63;3.33;;;8.90;99.90;;;;;;5074619;28;20307;-84
2023/04/07 04:46:57;;;;;;;15.17;3.20;;;8.90;99.90;;;;;;5074445;28;20205;-85
2023/04/07 04:49:24;;;;;;;9.63;2.63;;;8.90;99.90;;;;;;5074988;28;20201;-86
2023/04/07 04:51:51;;;;;;;11.97;3.47;;;8.90;99.90;;;;;;5074462;28;20208;-87
2023/04/07 04:54:19;;;;;;;13.30;2.80;;;8.90;99.90;;;;;;5074048;28;20316;-83
2023/04/07 04:56:47;;;;;;;11.10;3.17;;;8.90;99.90;;;;;;5073462;28;20284;-83
2023/04/07 04:59:14;;;;;;;12.17;2.30;;;8.90;99.90;;;;;;5073121;28;20251;-84
2023/04/07 05:01:41;;;;;;;14.77;3.07;;;9.00;99.90;;;;;;5073613;28;20589;-83
2023/04/07 05:04:09;;;;;;;12.43;2.90;;;8.90;99.90;;;;;;5073804;28;20298;-82
2023/04/07 05:06:36;;;;;;;9.20;2.50;;;8.90;99.90;;;;;;5072885;28;20201;-82
2023/04/07 05:09:03;;;;;;;15.00;2.77;;;8.90;99.90;;;;;;5073317;28;20280;-83
2023/04/07 05:11:31;;;;;;;11.87;2.40;;;8.90;99.90;;;;;;5073501;28;20201;-83
2023/04/07 05:13:58;;;;;;;11.03;2.53;;;8.90;99.90;;;;;;5072438;28;20316;-82
2023/04/07 05:16:25;;;;;;;11.37;2.43;;;8.90;99.90;;;;;;5073406;28;20220;-83
2023/04/07 05:18:52;;;;;;;13.83;3.23;;;8.90;99.90;;;;;;5073567;28;20721;-84
2023/04/07 05:21:19;;;;;;;11.87;2.60;;;8.90;99.90;;;;;;5073094;28;20200;-81
2023/04/07 05:23:46;;;;;;;13.80;2.67;;;8.90;99.90;;;;;;5073467;28;20201;-82
2023/04/07 05:26:13;;;;;;;15.67;2.20;;;8.90;99.90;;;;;;5073136;28;20197;-82
2023/04/07 05:28:41;;;;;;;8.93;2.30;;;8.90;99.90;;;;;;5075818;28;20208;-83
2023/04/07 05:31:08;;;;;;;17.13;3.33;;;9.00;99.90;;;;;;5078338;28;20544;-83
2023/04/07 05:33:35;;;;;;;14.23;3.43;;;8.90;99.90;;;;;;5076917;28;20232;-83
2023/04/07 05:36:02;;;;;;;16.43;4.17;;;9.00;99.90;;;;;;5077322;28;20201;-84
2023/04/07 05:38:29;;;;;;;11.13;2.87;;;8.90;99.90;;;;;;5077388;28;20292;-85
2023/04/07 05:40:56;;;;;;;11.90;3.17;;;8.90;99.90;;;;;;5076800;28;20240;-86
2023/04/07 05:43:23;;;;;;;11.63;2.73;;;9.00;99.90;;;;;;5077570;28;20197;-82
2023/04/07 05:45:51;;;;;;;11.27;3.97;;;8.90;99.90;;;;;;5077297;28;20300;-84
2023/04/07 05:48:18;;;;;;;14.40;2.60;;;9.00;99.90;;;;;;5076418;28;20240;-83
2023/04/07 05:50:45;;;;;;;13.37;2.27;;;9.00;99.90;;;;;;5077205;28;20286;-82
2023/04/07 05:53:12;;;;;;;13.17;2.97;;;9.00;99.90;;;;;;5077092;28;20198;-82
2023/04/07 05:55:38;;;;;;;10.47;2.37;;;9.00;99.90;;;;;;5075818;28;20197;-83
2023/04/07 05:58:05;;;;;;;11.30;2.40;;;9.00;99.90;;;;;;5076467;28;20205;-84
2023/04/07 06:00:32;;;;;;;10.17;2.30;;;9.00;99.90;;;;;;5076396;28;20749;-84
2023/04/07 06:03:02;;;;;;;10.57;3.70;;;9.00;99.90;;;;;;5076065;28;20233;-84
2023/04/07 06:05:29;;;;;;;9.20;2.37;;;9.00;99.90;;;;;;5076881;28;20228;-84
2023/04/07 06:07:56;;;;;;;9.03;1.93;;;9.00;99.90;;;;;;5076586;28;20639;-85
2023/04/07 06:10:23;;;;;;;6.87;2.73;;;9.10;99.90;;;;;;5076155;28;20247;-83
2023/04/07 06:12:49;;;;;;;8.70;2.03;;;9.00;99.90;;;;;;5076392;28;20253;-84
2023/04/07 06:15:17;;;;;;;10.93;2.10;;;9.00;99.90;;;;;;5074972;28;20514;-84
2023/04/07 06:17:44;;;;;;;6.80;2.40;;;9.00;99.90;;;;;;5076232;28;20634;-82
2023/04/07 06:20:13;;;;;;;12.63;2.20;;;9.00;99.90;;;;;;5076581;28;20205;-84
2023/04/07 06:22:40;;;;;;;7.23;1.80;;;9.10;99.90;;;;;;5075763;28;20228;-84
2023/04/07 06:25:08;;;;;;;9.73;2.13;;;9.10;99.90;;;;;;5075988;28;20225;-84
2023/04/07 06:27:35;;;;;;;9.30;2.13;;;9.10;99.90;;;;;;5076516;28;20224;-84
2023/04/07 06:30:02;;;;;;;5.83;1.60;;;9.10;99.90;;;;;;5075632;28;20239;-83
2023/04/07 06:32:29;;;;;;;6.30;1.63;;;9.10;99.90;;;;;;5075919;28;20280;-82
2023/04/07 06:34:56;;;;;;;7.47;1.23;;;9.10;99.90;;;;;;5076095;28;20673;-85
2023/04/07 06:37:25;;;;;;;2.97;1.40;;;9.10;99.90;;;;;;5075679;28;20202;-82
2023/04/07 06:39:52;;;;;;;6.60;2.00;;;9.20;99.90;;;;;;5074984;28;20205;-83
2023/04/07 06:42:18;;;;;;;9.07;1.60;;;9.20;99.90;;;;;;5075183;28;20336;-83
2023/04/07 06:44:45;;;;;;;7.47;1.83;;;9.20;99.90;;;;;;5075641;28;20217;-83
2023/04/07 06:47:12;;;;;;;6.40;1.57;;;9.20;99.90;;;;;;5075407;28;20225;-80
2023/04/07 06:53:05;;;;;;;9.80;2.67;;;9.20;99.90;;;;;;4938173;28;20196;-81
2023/04/07 06:55:32;;;;;;;9.30;2.17;;;9.20;99.90;;;;;;5051363;28;20220;-81
2023/04/07 06:57:59;;;;;;;5.10;2.17;;;9.30;99.90;;;;;;5093242;28;20210;-83
2023/04/07 07:00:29;;;;;;;5.60;1.53;;;9.30;99.90;;;;;;5108187;28;20750;-80
2023/04/07 07:02:56;;;;;;;7.73;2.03;;;9.30;99.90;;;;;;5081218;28;20208;-82
2023/04/07 07:05:23;;;;;;;9.13;2.30;;;9.30;99.90;;;;;;5078353;28;20208;-81
2023/04/07 07:07:50;;;;;;;5.87;2.23;;;9.30;99.90;;;;;;5073526;28;20526;-82
2023/04/07 07:10:21;;;;;;;7.67;2.17;;;9.30;99.90;;;;;;5107702;28;20286;-79
2023/04/07 07:12:48;;;;;;;15.87;1.87;;;9.30;99.90;;;;;;5104818;28;20238;-82
2023/04/07 07:15:15;;;;;;;11.13;2.37;;;9.40;99.90;;;;;;5094966;28;20203;-82
2023/04/07 07:17:42;;;;;;;9.83;1.90;;;9.50;99.90;;;;;;5094508;28;20666;-83
2023/04/07 07:20:10;;;;;;;11.07;2.30;;;9.50;99.90;;;;;;5093420;28;20239;-85
2023/04/07 07:22:37;;;;;;;8.17;1.90;;;9.50;99.90;;;;;;5093139;28;20213;-85
2023/04/07 07:25:05;;;;;;;11.70;2.17;;;9.50;99.90;;;;;;5075385;28;20270;-84
2023/04/07 07:27:33;;;;;;;9.80;2.30;;;9.50;99.90;;;;;;5075060;28;20206;-82
2023/04/07 07:30:00;;;;;;;7.53;2.53;;;9.50;99.90;;;;;;5074709;28;20236;-87
2023/04/07 07:32:27;;;;;;;7.33;1.70;;;9.50;99.90;;;;;;5075059;28;20201;-87
2023/04/07 07:34:54;;;;;;;11.87;2.43;;;9.50;99.90;;;;;;5076081;28;20270;-85
2023/04/07 07:37:21;;;;;;;15.13;2.50;;;9.50;99.90;;;;;;5074770;28;20208;-85
2023/04/07 07:39:48;;;;;;;10.47;2.00;;;9.60;99.90;;;;;;5075218;28;20288;-85
2023/04/07 07:42:15;;;;;;;10.27;2.73;;;9.60;99.90;;;;;;5075058;28;20822;-86
2023/04/07 07:45:05;;;;;;;9.17;2.10;;;9.70;99.90;;;;;;5074848;28;20229;-81
2023/04/07 07:47:32;;;;;;;13.20;2.40;;;9.70;99.90;;;;;;5075823;28;20219;-81
2023/04/07 07:49:59;;;;;;;14.83;4.13;;;9.80;99.90;;;;;;5094834;28;20204;-82
2023/04/07 07:52:26;;;;;;;14.97;3.03;;;9.80;99.90;;;;;;5093569;28;20201;-84
2023/04/07 07:54:53;;;;;;;12.33;2.73;;;9.90;99.90;;;;;;5094256;28;20242;-85
2023/04/07 07:57:20;;;;;;;25.83;3.70;;;9.90;99.90;;;;;;5080766;28;20232;-81
2023/04/07 07:59:48;;;;;;;9.07;2.00;;;9.90;99.90;;;;;;5075407;28;20205;-86
2023/04/07 08:02:15;;;;;;;11.07;2.60;;;9.90;99.90;;;;;;5074513;28;20233;-86
2023/04/07 08:04:42;;;;;;;8.97;2.20;;;10.00;99.90;;;;;;5074601;28;20668;-84
2023/04/07 08:07:10;;;;;;;11.67;2.93;;;10.00;99.90;;;;;;5074285;28;20207;-85
2023/04/07 08:09:37;;;;;;;10.03;2.23;;;10.00;99.90;;;;;;5073816;28;20224;-87
2023/04/07 08:12:04;;;;;;;7.90;2.63;;;10.10;99.90;;;;;;5074199;28;20201;-81
2023/04/07 08:14:31;;;;;;;9.67;2.13;;;10.10;99.90;;;;;;5087633;28;20226;-84
2023/04/07 08:16:59;;;;;;;9.97;2.00;;;10.10;99.90;;;;;;5093894;28;20235;-82
2023/04/07 08:19:26;;;;;;;13.03;2.70;;;10.20;99.90;;;;;;5076254;28;20213;-84
2023/04/07 08:21:53;;;;;;;14.77;2.67;;;10.30;99.90;;;;;;5073050;28;20254;-82
2023/04/07 08:24:20;;;;;;;13.93;3.00;;;10.30;99.90;;;;;;5073790;28;20278;-84
2023/04/07 08:26:47;;;;;;;8.77;2.50;;;10.30;99.90;;;;;;5073671;28;20228;-82
2023/04/07 08:29:14;;;;;;;11.17;2.43;;;10.40;99.90;;;;;;5073180;28;20233;-81
2023/04/07 08:31:41;;;;;;;10.67;2.50;;;10.40;99.90;;;;;;5078221;28;20205;-83
2023/04/07 08:34:10;;;;;;;13.50;2.37;;;10.40;99.90;;;;;;5088143;28;20219;-81
2023/04/07 08:36:36;;;;;;;7.73;2.60;;;10.40;99.90;;;;;;5087423;28;20578;-83
2023/04/07 08:39:04;;;;;;;9.97;2.23;;;10.50;99.90;;;;;;5093075;28;20279;-81
2023/04/07 08:41:37;;;;;;;8.37;2.23;;;10.60;99.90;;;;;;5081436;28;20237;-85
2023/04/07 08:44:04;;;;;;;10.43;2.00;;;10.70;99.90;;;;;;5085987;28;20277;-82
2023/04/07 08:46:33;;;;;;;6.97;1.60;;;10.80;99.90;;;;;;5113603;28;20722;-80
2023/04/07 08:49:01;;;;;;;5.97;1.80;;;10.80;99.90;;;;;;5113657;28;20283;-82
2023/04/07 08:51:32;;;;;;;6.63;1.63;;;10.80;99.90;;;;;;5089191;28;20208;-82
2023/04/07 08:54:06;;;;;;;11.93;2.20;;;10.90;99.90;;;;;;5073583;28;20708;-83
2023/04/07 08:56:33;;;;;;;10.47;2.63;;;10.90;99.90;;;;;;5089077;28;20601;-80
2023/04/07 08:59:01;;;;;;;10.77;1.80;;;11.00;99.90;;;;;;5072652;28;20189;-82
2023/04/07 09:01:30;;;;;;;12.80;2.23;;;11.00;99.90;;;;;;5091910;28;20199;-82
2023/04/07 09:03:58;;;;;;;8.20;1.87;;;11.00;99.90;;;;;;5113088;28;20649;-82
2023/04/07 09:06:26;;;;;;;10.03;2.03;;;11.00;99.90;;;;;;5113787;28;20220;-82
2023/04/07 09:08:54;;;;;;;5.37;1.77;;;11.00;99.90;;;;;;5079129;28;20215;-82
2023/04/07 09:11:22;;;;;;;9.20;2.00;;;11.00;99.90;;;;;;5088927;28;20204;-82
2023/04/07 09:13:49;;;;;;;12.20;2.07;;;11.00;99.90;;;;;;5088413;28;20504;-82
2023/04/07 09:16:17;;;;;;;7.07;1.70;;;11.00;99.90;;;;;;5089691;28;20227;-81
2023/04/07 09:18:44;;;;;;;7.87;1.73;;;11.00;99.90;;;;;;5097698;28;20279;-82
2023/04/07 09:21:11;;;;;;;12.53;2.23;;;11.00;99.90;;;;;;5082679;28;20207;-82
2023/04/07 09:23:39;;;;;;;10.03;2.50;;;11.10;99.90;;;;;;5072615;28;20521;-83
2023/04/07 09:26:23;;;;;;;10.47;2.70;;;11.10;99.90;;;;;;5070819;28;20221;-83
2023/04/07 09:28:53;;;;;;;11.77;2.57;;;11.10;99.90;;;;;;5071834;28;20225;-83
2023/04/07 09:31:21;;;;;;;8.53;2.50;;;11.20;99.90;;;;;;5072715;28;20644;-82
2023/04/07 09:33:48;;;;;;;12.37;2.73;;;11.20;99.90;;;;;;5072446;28;20189;-82
2023/04/07 09:36:15;;;;;;;12.20;2.80;;;11.20;99.90;;;;;;5072851;28;20236;-82
2023/04/07 09:38:44;;;;;;;13.83;2.97;;;11.20;99.90;;;;;;5073216;28;20236;-85
2023/04/07 09:41:12;;;;;;;8.57;2.07;;;11.30;99.90;;;;;;5081820;28;20225;-82
2023/04/07 09:43:43;;;;;;;9.90;2.70;;;11.30;99.90;;;;;;5076677;28;20280;-81
2023/04/07 09:46:12;;;;;;;14.60;3.43;;;11.40;99.90;;;;;;5075442;28;20296;-79
2023/04/07 09:48:39;;;;;;;13.27;3.30;;;11.30;99.90;;;;;;5076870;28;20280;-81
2023/04/07 09:51:08;;;;;;;13.47;3.40;;;11.20;99.90;;;;;;5088610;28;20208;-81
2023/04/07 09:53:46;;;;;;;11.97;3.23;;;11.20;99.90;;;;;;5076577;28;20262;-81
2023/04/07 09:56:15;;;;;;;13.87;3.13;;;11.10;99.90;;;;;;5071940;28;20200;-82
2023/04/07 09:58:45;;;;;;;12.33;2.63;;;11.10;99.90;;;;;;5072305;28;20193;-86
2023/04/07 10:01:13;;;;;;;10.57;3.00;;;11.00;99.90;;;;;;5073435;28;20190;-85
2023/04/07 10:03:40;;;;;;;14.33;3.40;;;11.00;99.90;;;;;;5073675;28;20251;-85
2023/04/07 10:06:08;;;;;;;11.73;2.80;;;11.00;99.90;;;;;;5074238;28;20851;-88
2023/04/07 10:08:36;;;;;;;8.47;2.83;;;10.90;99.90;;;;;;5073669;28;20566;-87
2023/04/07 10:11:04;;;;;;;10.83;2.97;;;11.00;99.90;;;;;;5087571;28;20333;-86
2023/04/07 10:13:32;;;;;;;15.07;2.77;;;11.10;99.90;;;;;;5083193;28;20256;-85
2023/04/07 10:16:03;;;;;;;12.60;2.57;;;11.10;99.90;;;;;;5074612;28;20239;-85
2023/04/07 10:18:32;;;;;;;9.47;2.57;;;10.90;99.90;;;;;;5076639;28;20213;-81
2023/04/07 10:21:02;;;;;;;18.87;4.47;;;11.00;99.90;;;;;;5076458;28;20201;-85
2023/04/07 10:23:43;;;;;;;14.77;3.40;;;11.00;99.90;;;;;;5076346;28;20205;-84
2023/04/07 10:26:12;;;;;;;16.13;4.13;;;10.90;99.90;;;;;;5076723;28;20548;-85
2023/04/07 10:28:41;;;;;;;14.60;3.80;;;10.90;99.90;;;;;;5078731;28;20280;-86
2023/04/07 10:31:10;;;;;;;11.67;3.20;;;10.90;99.90;;;;;;5079312;28;20216;-85
2023/04/07 10:33:48;;;;;;;10.90;2.50;;;10.80;99.90;;;;;;5076803;28;20464;-87
2023/04/07 10:36:16;;;;;;;12.80;3.17;;;10.80;99.90;;;;;;5076363;28;20200;-85
2023/04/07 10:39:20;;;;;;;10.17;2.50;;;10.70;99.90;;;;;;5076964;28;20201;-84
2023/04/07 10:41:47;;;;;;;10.90;3.00;;;10.60;99.90;;;;;;5076280;28;20240;-82
2023/04/07 10:44:59;;;;;;;17.47;3.80;;;10.70;99.90;;;;;;5075555;28;20632;-85
2023/04/07 10:47:27;;;;;;;12.33;3.17;;;10.70;99.90;;;;;;5076679;28;20232;-86
2023/04/07 10:50:18;;;;;;;14.57;2.60;;;10.70;99.90;;;;;;5076651;28;20475;-83
2023/04/07 10:52:47;;;;;;;13.80;3.00;;;10.70;99.90;;;;;;5076440;28;20223;-86
2023/04/07 10:55:37;;;;;;;15.27;2.80;;;10.70;99.90;;;;;;5076592;28;20193;-85
2023/04/07 10:58:17;;;;;;;13.33;2.53;;;10.80;99.90;;;;;;5077543;28;20178;-86
2023/04/07 11:01:21;;;;;;;18.57;3.60;;;10.80;99.90;;;;;;5096528;28;20192;-84
2023/04/07 11:04:00;;;;;;;17.17;2.97;;;10.90;99.90;;;;;;5079025;28;20280;-86
2023/04/07 11:06:27;;;;;;;8.67;2.23;;;11.00;99.90;;;;;;5076092;28;20279;-88
2023/04/07 11:08:54;;;;;;;12.63;3.00;;;11.00;99.90;;;;;;5083633;28;20286;-85
2023/04/07 11:11:39;;;;;;;14.97;3.17;;;10.90;99.90;;;;;;5095626;28;20612;-86
2023/04/07 11:14:07;;;;;;;13.83;3.73;;;11.00;99.90;;;;;;5096375;28;20743;-87
2023/04/07 11:16:44;;;;;;;12.03;2.93;;;11.10;99.90;;;;;;5083674;28;20276;-87
2023/04/07 11:19:12;;;;;;;23.23;4.30;;;11.20;99.90;;;;;;5075616;28;20294;-86
2023/04/07 11:21:39;;;;;;;13.37;3.57;;;11.20;99.90;;;;;;5075273;28;20190;-88
2023/04/07 11:24:06;;;;;;;14.07;2.80;;;11.30;99.90;;;;;;5075486;28;20197;-86
2023/04/07 11:26:41;;;;;;;11.10;2.60;;;11.20;99.90;;;;;;5074605;28;20233;-87
2023/04/07 11:29:09;;;;;;;15.83;3.03;;;11.30;99.90;;;;;;5075441;28;20224;-87
2023/04/07 11:31:36;;;;;;;11.23;2.93;;;11.20;99.90;;;;;;5075117;28;20288;-86
2023/04/07 11:34:05;;;;;;;13.53;2.87;;;11.20;99.90;;;;;;5075378;28;20189;-87
2023/04/07 11:36:34;;;;;;;18.63;2.90;;;11.20;99.90;;;;;;5074808;28;20616;-83
2023/04/07 11:39:02;;;;;;;13.07;3.10;;;11.10;99.90;;;;;;5074807;28;20201;-83
2023/04/07 11:41:31;;;;;;;13.93;2.80;;;11.10;99.90;;;;;;5074640;28;20546;-88
2023/04/07 11:44:06;;;;;;;12.00;2.97;;;11.10;99.90;;;;;;5075296;28;20280;-86
2023/04/07 11:46:33;;;;;;;13.10;3.47;;;11.20;99.90;;;;;;5074433;28;20228;-87
2023/04/07 11:49:10;;;;;;;15.47;2.97;;;11.20;99.90;;;;;;5074420;28;20197;-86
2023/04/07 11:51:39;;;;;;;11.90;2.53;;;11.10;99.90;;;;;;5074550;28;20189;-86
2023/04/07 11:54:06;;;;;;;18.83;3.63;;;11.10;99.90;;;;;;5074864;28;20712;-89
2023/04/07 11:56:42;;;;;;;11.90;2.87;;;11.10;99.90;;;;;;5090710;28;20827;-89
2023/04/07 11:59:19;;;;;;;16.43;3.70;;;11.10;99.90;;;;;;5095091;28;20204;-88
2023/04/07 12:01:47;;;;;;;16.67;3.60;;;11.10;99.90;;;;;;5094823;28;20199;-90
2023/04/07 12:04:14;;;;;;;18.03;3.50;;;11.10;99.90;;;;;;5083855;28;20205;-86
2023/04/07 12:06:48;;;;;;;14.90;3.10;;;11.10;99.90;;;;;;5091674;28;20228;-88
2023/04/07 12:09:30;;;;;;;12.90;3.17;;;11.10;99.90;;;;;;5093352;28;20238;-85
2023/04/07 12:11:57;;;;;;;12.80;3.40;;;11.20;99.90;;;;;;5094280;28;20246;-86
2023/04/07 12:14:26;;;;;;;10.83;2.80;;;11.20;99.90;;;;;;5093656;28;20266;-87
2023/04/07 12:16:55;;;;;;;11.57;2.73;;;11.30;99.90;;;;;;5075510;28;20232;-87
2023/04/07 12:19:22;;;;;;;10.63;3.53;;;11.40;99.90;;;;;;5073309;28;20490;-91
2023/04/07 12:21:51;;;;;;;17.40;3.07;;;11.40;99.90;;;;;;5073517;28;20887;-85
2023/04/07 12:24:17;;;;;;;13.43;2.70;;;11.60;99.90;;;;;;5073077;28;20262;-87
2023/04/07 12:26:45;;;;;;;14.00;3.40;;;11.70;99.90;;;;;;5073365;28;20308;-87
2023/04/07 12:29:11;;;;;;;11.80;2.80;;;11.80;99.90;;;;;;5074232;28;20219;-87
2023/04/07 12:31:38;;;;;;;8.87;2.70;;;11.80;99.90;;;;;;5093113;28;20279;-85
2023/04/07 12:34:06;;;;;;;13.87;2.67;;;11.70;99.90;;;;;;5093819;28;20254;-87
2023/04/07 12:36:33;;;;;;;16.03;3.80;;;11.70;99.90;;;;;;5083493;28;20201;-87
2023/04/07 12:39:01;;;;;;;13.10;2.90;;;11.70;99.90;;;;;;5073563;28;20194;-86
2023/04/07 12:41:28;;;;;;;9.97;2.90;;;11.80;99.90;;;;;;5072854;28;20681;-84
2023/04/07 12:43:55;;;;;;;16.40;2.93;;;11.80;99.90;;;;;;5073429;28;20207;-84
2023/04/07 12:46:22;;;;;;;12.40;2.67;;;11.80;99.90;;;;;;5073751;28;20225;-85
2023/04/07 12:48:48;;;;;;;9.60;2.37;;;11.80;99.90;;;;;;5073534;28;20276;-86
2023/04/07 12:51:16;;;;;;;9.53;2.20;;;11.80;99.90;;;;;;5073892;28;20197;-85
2023/04/07 12:53:43;;;;;;;15.27;3.53;;;11.70;99.90;;;;;;5074128;28;20197;-83
2023/04/07 12:56:12;;;;;;;13.60;3.70;;;11.70;99.90;;;;;;5072727;28;20232;-87